• Join FlightAware (Why Join?)
  • Login
  • US Flag 
08:18PM EDT


 

Airport Tracker/Info


-or-


 

Live Flight TrackerFlight Track Log ✈ N400PU ✈ 20-Nov-2013 ✈ KUNV - KLAF

Flight Track Log - Related Links

Times and Time Zones

All times are in EST time to prevent confusion due to time zone crossing. See the N400PU flight status page for this flight to view local times or setup timezone preferences in your user account.

Time Position Orientation Groundspeed Altitude Reporting Facility
EST Latitude Longitude Course Direction KTS MPH feet Rate Location/Type
08:10AM 40.9319 -77.9256 299° West 277 319 9,000  Level Cleveland Center
08:11AM 40.9281 -78.0600 268° West 305 351 11,000 2,160 Climbing Cleveland Center
08:12AM 40.9244 -78.1747 268° West 312 359 13,500 2,400 Climbing Cleveland Center
08:13AM 40.8405 -78.5909 270° West  Level Estimated
08:13AM 40.9192 -78.2917 267° West 327 376 16,000  Level Cleveland Center
08:14AM 40.9142 -78.4133 267° West 333 383 18,200 2,280 Climbing Cleveland Center
08:15AM 40.9092 -78.5367 267° West 337 388 20,800 2,280 Climbing Cleveland Center
08:16AM 40.9014 -78.6889 266° West 350 403 23,000 1,200 Climbing Cleveland Center
08:17AM 40.8956 -78.8314 267° West 384 442 23,300 1,020 Climbing Cleveland Center
08:18AM 40.8906 -78.9794 267° West 403 464 25,200 1,740 Climbing Cleveland Center
08:19AM 40.8844 -79.1208 267° West 389 448 26,900 1,740 Climbing Cleveland Center
08:20AM 40.8767 -79.2581 266° West 379 436 28,900 1,740 Climbing Cleveland Center
08:21AM 40.8672 -79.4203 266° West 372 428 30,600 1,440 Climbing Cleveland Center
08:22AM 40.8608 -79.5611 267° West 382 440 32,000 660 Climbing Cleveland Center
08:23AM 40.8528 -79.7047 266° West 395 455 32,000 480 Level Cleveland Center
08:24AM 40.8458 -79.8522 266° West 402 463 33,100 960 Climbing Cleveland Center
08:25AM 40.8375 -80.0119 266° West 394 453 34,000 420 Climbing Cleveland Center
08:26AM 40.8289 -80.1564 266° West 395 455 34,000  Level Cleveland Center
08:27AM 40.8231 -80.3017 267° West 398 458 34,000 480 Level Cleveland Center
08:28AM 40.8175 -80.4500 267° West 393 452 35,000 960 Climbing Cleveland Center
08:29AM 40.8117 -80.5900 267° West 379 436 36,000 480 Climbing Cleveland Center
08:31AM 40.8061 -80.7364 267° West 395 455 36,000  Level Cleveland Center
08:32AM 40.7992 -80.9125 267° West 403 464 36,000  Level Cleveland Center
08:33AM 40.7925 -81.0608 267° West 403 464 36,000  Level Cleveland Center
08:34AM 40.7850 -81.2117 266° West 406 467 36,000  Level Cleveland Center
08:35AM 40.7786 -81.3606 267° West 402 463 36,000  Level Cleveland Center
08:36AM 40.7711 -81.5086 266° West 400 460 36,000  Level Cleveland Center
08:37AM 40.7633 -81.6583 266° West 403 464 36,000  Level Cleveland Center
08:38AM 40.7561 -81.8075 266° West 402 463 36,000  Level Cleveland Center
08:39AM 40.7472 -81.9808 266° West 401 461 36,000  Level Cleveland Center
08:40AM 40.7400 -82.1286 266° West 400 460 36,000  Level Cleveland Center
08:41AM 40.7292 -82.3014 265° West 401 461 36,000  Level Indianapolis Center
08:42AM 40.7214 -82.4492 266° West 401 461 36,000  Level Indianapolis Center
08:43AM 40.7128 -82.5958 266° West 398 458 36,000  Level Indianapolis Center
08:44AM 40.7031 -82.7678 266° West 399 459 36,000  Level Indianapolis Center
08:45AM 40.6944 -82.9156 266° West 400 460 36,000  Level Indianapolis Center
08:46AM 40.6850 -83.0642 265° West 403 464 36,000  Level Indianapolis Center
08:47AM 40.6767 -83.1997 265° West 399 459 36,000  Level Indianapolis Center
08:48AM 40.6675 -83.3442 265° West 400 460 36,000  Level Indianapolis Center
08:49AM 40.6564 -83.5186 265° West 400 460 36,000 -180 Level Indianapolis Center
08:50AM 40.6467 -83.6617 265° West 396 456 35,700 -480 Descending Indianapolis Center
08:51AM 40.6369 -83.7997 265° West 384 442 35,100 -360 Descending Indianapolis Center
08:52AM 40.6269 -83.9422 265° West 392 451 35,000 -60 Descending Indianapolis Center
08:53AM 40.6169 -84.0886 265° West 402 463 35,000 -360 Level Indianapolis Center
08:55AM 40.6056 -84.2597 265° West 396 456 34,300 -900 Descending Indianapolis Center
08:56AM 40.5944 -84.4014 264° West 393 452 33,200 -1,200 Descending Indianapolis Center
08:57AM 40.5839 -84.5467 265° West 401 461 31,900 -1,260 Descending Indianapolis Center
08:58AM 40.5731 -84.6933 264° West 405 466 30,600 -1,260 Descending Indianapolis Center
08:59AM 40.5611 -84.8403 264° West 406 467 29,300 -1,440 Descending Indianapolis Center
09:00AM 40.5475 -85.0172 264° West 414 476 27,700 -1,500 Descending Indianapolis Center
09:01AM 40.5347 -85.1644 264° West 410 472 26,200 -1,440 Descending Indianapolis Center
09:02AM 40.5236 -85.3194 265° West 424 488 24,800 -1,500 Descending Indianapolis Center
09:03AM 40.5103 -85.4714 263° West 424 488 23,200 -2,100 Descending Indianapolis Center
09:04AM 40.4992 -85.6169 264° West 410 472 20,500 -2,640 Descending Indianapolis Center
09:05AM 40.4878 -85.7553 264° West 392 451 17,800 -3,060 Descending Indianapolis Center
09:06AM 40.4797 -85.9022 266° West 377 434 14,800 -3,420 Descending Chicago Center
09:06AM 40.4775 -85.9103 250° West 377 434 14,600 -1,560 Descending Chicago Center
09:06AM 40.4750 -85.9703 267° West 375 432 13,900 -1,620 Descending Chicago Center
09:07AM 40.4714 -86.0383 266° West 362 417 13,000 -1,680 Descending Chicago Center
09:07AM 40.4678 -86.1000 266° West 365 420 12,200 -1,740 Descending Chicago Center
09:08AM 40.4608 -86.1769 263° West 356 410 11,300 -1,680 Descending Chicago Center
09:08AM 40.4606 -86.2244 270° West 353 406 10,500 -1,620 Descending Chicago Center
09:09AM 40.4553 -86.2833 263° West 290 334 9,700 -1,560 Descending Chicago Center
09:09AM 40.4528 -86.3283 266° West 300 345 8,900 -1,740 Descending Chicago Center
09:10AM 40.4475 -86.3922 264° West 274 315 8,000 -1,560 Descending Chicago Center
09:10AM 40.4467 -86.4286 268° West 281 323 7,300 -1,620 Descending Chicago Center
09:11AM 40.4411 -86.5119 265° West 270 311 6,100 -1,980 Descending Chicago Center
09:11AM 40.4389 -86.5442 265° West 269 310 5,300 -1,680 Descending Chicago Center
09:12AM 40.4403 -86.5967 272° West 267 307 4,600 -1,560 Descending Chicago Center
09:13AM 40.4456 -86.6394 279° West 264 304 3,700 -1,380 Descending Chicago Center
09:13AM 40.4467 -86.7036 271° West 261 300 3,100 -780 Descending Chicago Center
09:14AM 40.4508 -86.7328 281° West 262 302 2,900 -120 Descending Chicago Center
09:14AM 40.4522 -86.7831 272° West 229 264 3,000 60 Climbing Chicago Center
09:15AM 40.4561 -86.8147 279° West 249 287 3,000 -240 Level Chicago Center
09:15AM 40.4536 -86.8569 266° West 183 211 2,800 -420 Descending Chicago Center
09:16AM 40.4528 -86.8767 267° West 204 235 2,600 -600 Descending Chicago Center
09:16AM 40.4489 -86.9250 264° West 176 203 2,200 -480 Descending Chicago Center
09:17AM 40.4483 -86.9933 269° West 175 201 1,900 -420 Descending Chicago Center
09:18AM 40.4172 -86.9883 173° South 110 127 1,400 -540 Descending Chicago Center
09:20AM 40.4000 -86.9333 131° Southeast  Level FlightAware Approximate